Melrose, Virginia
Current Conditions -  °F | °C
As of 12:54 AM on Wednesday 22 Oct 2014 (Local Time) from KROA Reporting Station
Broken Clouds Broken Clouds  
Wind Chill: 51°   Ceiling: 3600
Heat Index: 51°   Visibility: 10mi
Dew Point: 38°   Wind: 10mph
Humidity: 61%   Direction: 320°NW
Pressure: 30"   Gusts: NA
Location:  37.2953°N, 79.9917°W
Report Text: KROA 220454Z 32009KT 10SM BKN036 11/03 A3000 RMK AO2 SLP154 T01060033 401890089
Loading
Personal Weather Stations






























Interactive Weather Map
Tropical Storm Tracking
New forecast layout! Learn more

10-Day Weather Forecast

Advertisements
Track Severe Weather on mobile